sensor_id;sensor_type;location;lat;lon;timestamp;P1;durP1;ratioP1;P2;durP2;ratioP2
18726;SDS011;9492;51.888;5.186;2022-07-22T00:00:03;3.87;;;2.20;;
18726;SDS011;9492;51.888;5.186;2022-07-22T00:02:30;5.27;;;2.70;;
18726;SDS011;9492;51.888;5.186;2022-07-22T00:04:56;4.07;;;2.10;;
18726;SDS011;9492;51.888;5.186;2022-07-22T00:07:22;3.83;;;1.77;;
18726;SDS011;9492;51.888;5.186;2022-07-22T00:09:49;6.33;;;2.63;;
18726;SDS011;9492;51.888;5.186;2022-07-22T00:12:15;4.53;;;2.23;;
18726;SDS011;9492;51.888;5.186;2022-07-22T00:14:41;4.73;;;2.83;;
18726;SDS011;9492;51.888;5.186;2022-07-22T00:17:07;5.63;;;2.70;;
18726;SDS011;9492;51.888;5.186;2022-07-22T00:19:33;5.17;;;2.20;;
18726;SDS011;9492;51.888;5.186;2022-07-22T00:22:00;5.73;;;2.13;;
18726;SDS011;9492;51.888;5.186;2022-07-22T00:24:26;3.50;;;2.17;;
18726;SDS011;9492;51.888;5.186;2022-07-22T00:26:52;3.07;;;1.80;;
18726;SDS011;9492;51.888;5.186;2022-07-22T00:29:18;4.57;;;2.27;;
18726;SDS011;9492;51.888;5.186;2022-07-22T00:31:44;2.37;;;2.00;;
18726;SDS011;9492;51.888;5.186;2022-07-22T00:34:10;2.60;;;1.90;;
18726;SDS011;9492;51.888;5.186;2022-07-22T00:36:36;4.33;;;2.17;;
18726;SDS011;9492;51.888;5.186;2022-07-22T00:39:02;5.00;;;2.63;;
18726;SDS011;9492;51.888;5.186;2022-07-22T00:41:28;5.63;;;2.17;;
18726;SDS011;9492;51.888;5.186;2022-07-22T00:43:57;8.97;;;2.47;;
18726;SDS011;9492;51.888;5.186;2022-07-22T00:46:24;6.93;;;2.50;;
18726;SDS011;9492;51.888;5.186;2022-07-22T00:48:50;5.13;;;2.63;;
18726;SDS011;9492;51.888;5.186;2022-07-22T00:51:17;5.03;;;2.43;;
18726;SDS011;9492;51.888;5.186;2022-07-22T00:53:43;4.57;;;2.23;;
18726;SDS011;9492;51.888;5.186;2022-07-22T00:56:09;5.80;;;2.87;;
18726;SDS011;9492;51.888;5.186;2022-07-22T00:58:35;4.63;;;2.13;;
18726;SDS011;9492;51.888;5.186;2022-07-22T01:01:02;4.93;;;2.63;;
18726;SDS011;9492;51.888;5.186;2022-07-22T01:03:28;4.07;;;2.40;;
18726;SDS011;9492;51.888;5.186;2022-07-22T01:05:55;3.40;;;2.27;;
18726;SDS011;9492;51.888;5.186;2022-07-22T01:08:21;4.23;;;2.20;;
18726;SDS011;9492;51.888;5.186;2022-07-22T01:10:47;6.47;;;2.70;;
18726;SDS011;9492;51.888;5.186;2022-07-22T01:13:13;3.57;;;2.43;;
18726;SDS011;9492;51.888;5.186;2022-07-22T01:15:39;3.30;;;2.33;;
18726;SDS011;9492;51.888;5.186;2022-07-22T01:18:05;4.20;;;2.07;;
18726;SDS011;9492;51.888;5.186;2022-07-22T01:20:31;3.30;;;2.10;;
18726;SDS011;9492;51.888;5.186;2022-07-22T01:22:57;5.17;;;2.30;;
18726;SDS011;9492;51.888;5.186;2022-07-22T01:25:23;5.60;;;2.37;;
18726;SDS011;9492;51.888;5.186;2022-07-22T01:27:49;3.10;;;2.30;;
18726;SDS011;9492;51.888;5.186;2022-07-22T01:30:15;4.90;;;2.27;;
18726;SDS011;9492;51.888;5.186;2022-07-22T01:32:41;5.07;;;2.40;;
18726;SDS011;9492;51.888;5.186;2022-07-22T01:35:07;5.53;;;2.60;;
18726;SDS011;9492;51.888;5.186;2022-07-22T01:37:34;4.47;;;2.30;;
18726;SDS011;9492;51.888;5.186;2022-07-22T01:40:00;3.90;;;2.47;;
18726;SDS011;9492;51.888;5.186;2022-07-22T01:42:26;5.43;;;2.63;;
18726;SDS011;9492;51.888;5.186;2022-07-22T01:44:52;3.83;;;2.63;;
18726;SDS011;9492;51.888;5.186;2022-07-22T01:47:18;3.83;;;2.23;;
18726;SDS011;9492;51.888;5.186;2022-07-22T01:49:44;2.87;;;2.13;;
18726;SDS011;9492;51.888;5.186;2022-07-22T01:52:11;5.57;;;2.83;;
18726;SDS011;9492;51.888;5.186;2022-07-22T01:54:36;7.90;;;2.67;;
18726;SDS011;9492;51.888;5.186;2022-07-22T01:57:03;4.07;;;2.40;;
18726;SDS011;9492;51.888;5.186;2022-07-22T01:59:29;8.07;;;2.73;;
18726;SDS011;9492;51.888;5.186;2022-07-22T02:01:55;5.43;;;2.80;;
18726;SDS011;9492;51.888;5.186;2022-07-22T02:04:21;6.20;;;3.20;;
18726;SDS011;9492;51.888;5.186;2022-07-22T02:06:47;4.40;;;2.60;;
18726;SDS011;9492;51.888;5.186;2022-07-22T02:09:13;3.53;;;2.37;;
18726;SDS011;9492;51.888;5.186;2022-07-22T02:11:39;2.57;;;2.30;;
18726;SDS011;9492;51.888;5.186;2022-07-22T02:14:05;5.20;;;2.40;;
18726;SDS011;9492;51.888;5.186;2022-07-22T02:16:31;6.70;;;3.13;;
18726;SDS011;9492;51.888;5.186;2022-07-22T02:18:57;3.90;;;2.60;;
18726;SDS011;9492;51.888;5.186;2022-07-22T02:21:23;4.63;;;2.60;;
18726;SDS011;9492;51.888;5.186;2022-07-22T02:23:49;4.70;;;2.90;;
18726;SDS011;9492;51.888;5.186;2022-07-22T02:26:15;4.60;;;2.20;;
18726;SDS011;9492;51.888;5.186;2022-07-22T02:28:41;3.93;;;2.50;;
18726;SDS011;9492;51.888;5.186;2022-07-22T02:31:07;4.17;;;2.53;;
18726;SDS011;9492;51.888;5.186;2022-07-22T02:33:33;5.40;;;2.47;;
18726;SDS011;9492;51.888;5.186;2022-07-22T02:35:59;4.00;;;2.60;;
18726;SDS011;9492;51.888;5.186;2022-07-22T02:38:25;8.43;;;3.37;;
18726;SDS011;9492;51.888;5.186;2022-07-22T02:40:51;7.40;;;3.00;;
18726;SDS011;9492;51.888;5.186;2022-07-22T02:43:17;3.43;;;2.40;;
18726;SDS011;9492;51.888;5.186;2022-07-22T02:45:43;3.67;;;2.43;;
18726;SDS011;9492;51.888;5.186;2022-07-22T02:48:09;4.60;;;2.80;;
18726;SDS011;9492;51.888;5.186;2022-07-22T02:50:35;6.43;;;3.50;;
18726;SDS011;9492;51.888;5.186;2022-07-22T02:53:02;3.97;;;2.80;;
18726;SDS011;9492;51.888;5.186;2022-07-22T02:55:28;4.63;;;2.37;;
18726;SDS011;9492;51.888;5.186;2022-07-22T02:57:54;8.47;;;3.17;;
18726;SDS011;9492;51.888;5.186;2022-07-22T03:00:20;5.13;;;2.40;;
18726;SDS011;9492;51.888;5.186;2022-07-22T03:02:46;3.60;;;2.67;;
18726;SDS011;9492;51.888;5.186;2022-07-22T03:05:12;2.97;;;2.13;;
18726;SDS011;9492;51.888;5.186;2022-07-22T03:07:38;5.53;;;3.13;;
18726;SDS011;9492;51.888;5.186;2022-07-22T03:10:04;3.10;;;2.07;;
18726;SDS011;9492;51.888;5.186;2022-07-22T03:12:30;4.07;;;2.73;;
18726;SDS011;9492;51.888;5.186;2022-07-22T03:14:56;3.30;;;2.33;;
18726;SDS011;9492;51.888;5.186;2022-07-22T03:17:22;5.77;;;2.87;;
18726;SDS011;9492;51.888;5.186;2022-07-22T03:19:48;4.23;;;2.53;;
18726;SDS011;9492;51.888;5.186;2022-07-22T03:22:14;3.33;;;2.47;;
18726;SDS011;9492;51.888;5.186;2022-07-22T03:24:40;4.23;;;2.63;;
18726;SDS011;9492;51.888;5.186;2022-07-22T03:27:06;4.30;;;2.73;;
18726;SDS011;9492;51.888;5.186;2022-07-22T03:29:32;3.13;;;2.70;;
18726;SDS011;9492;51.888;5.186;2022-07-22T03:31:58;5.60;;;2.90;;
18726;SDS011;9492;51.888;5.186;2022-07-22T03:34:24;5.57;;;2.80;;
18726;SDS011;9492;51.888;5.186;2022-07-22T03:36:50;4.83;;;3.07;;
18726;SDS011;9492;51.888;5.186;2022-07-22T03:39:16;4.17;;;2.77;;
18726;SDS011;9492;51.888;5.186;2022-07-22T03:41:42;4.60;;;2.77;;
18726;SDS011;9492;51.888;5.186;2022-07-22T03:44:08;5.60;;;2.33;;
18726;SDS011;9492;51.888;5.186;2022-07-22T03:46:34;5.70;;;2.70;;
18726;SDS011;9492;51.888;5.186;2022-07-22T03:49:00;4.47;;;2.93;;
18726;SDS011;9492;51.888;5.186;2022-07-22T03:51:26;3.57;;;2.57;;
18726;SDS011;9492;51.888;5.186;2022-07-22T03:53:52;4.33;;;2.50;;
18726;SDS011;9492;51.888;5.186;2022-07-22T03:56:18;3.73;;;2.50;;
18726;SDS011;9492;51.888;5.186;2022-07-22T03:58:44;3.90;;;2.77;;
18726;SDS011;9492;51.888;5.186;2022-07-22T04:01:10;5.70;;;2.80;;
18726;SDS011;9492;51.888;5.186;2022-07-22T04:03:36;3.50;;;2.27;;
18726;SDS011;9492;51.888;5.186;2022-07-22T04:06:02;3.37;;;2.47;;
18726;SDS011;9492;51.888;5.186;2022-07-22T04:08:28;4.23;;;2.67;;
18726;SDS011;9492;51.888;5.186;2022-07-22T04:10:54;3.73;;;2.50;;
18726;SDS011;9492;51.888;5.186;2022-07-22T04:13:19;5.63;;;3.07;;
18726;SDS011;9492;51.888;5.186;2022-07-22T04:15:45;6.50;;;2.70;;
18726;SDS011;9492;51.888;5.186;2022-07-22T04:18:11;4.53;;;2.67;;
18726;SDS011;9492;51.888;5.186;2022-07-22T04:20:37;3.87;;;2.70;;
18726;SDS011;9492;51.888;5.186;2022-07-22T04:23:03;4.67;;;2.67;;
18726;SDS011;9492;51.888;5.186;2022-07-22T04:25:29;4.17;;;2.73;;
18726;SDS011;9492;51.888;5.186;2022-07-22T04:27:55;3.07;;;2.37;;
18726;SDS011;9492;51.888;5.186;2022-07-22T04:30:21;2.57;;;2.30;;
18726;SDS011;9492;51.888;5.186;2022-07-22T04:32:47;4.23;;;2.13;;
18726;SDS011;9492;51.888;5.186;2022-07-22T04:35:13;4.87;;;2.40;;
18726;SDS011;9492;51.888;5.186;2022-07-22T04:37:39;3.67;;;2.90;;
18726;SDS011;9492;51.888;5.186;2022-07-22T04:40:05;3.70;;;2.20;;
18726;SDS011;9492;51.888;5.186;2022-07-22T04:42:32;3.73;;;2.47;;
18726;SDS011;9492;51.888;5.186;2022-07-22T04:44:58;4.20;;;2.20;;
18726;SDS011;9492;51.888;5.186;2022-07-22T04:47:23;4.97;;;2.10;;
18726;SDS011;9492;51.888;5.186;2022-07-22T04:49:49;6.03;;;1.90;;
18726;SDS011;9492;51.888;5.186;2022-07-22T04:52:16;4.20;;;2.87;;
18726;SDS011;9492;51.888;5.186;2022-07-22T04:54:41;5.03;;;2.40;;
18726;SDS011;9492;51.888;5.186;2022-07-22T04:57:07;6.03;;;2.50;;
18726;SDS011;9492;51.888;5.186;2022-07-22T04:59:33;2.37;;;1.87;;
18726;SDS011;9492;51.888;5.186;2022-07-22T05:01:59;3.53;;;2.40;;
18726;SDS011;9492;51.888;5.186;2022-07-22T05:04:25;5.63;;;2.20;;
18726;SDS011;9492;51.888;5.186;2022-07-22T05:06:51;3.70;;;2.07;;
18726;SDS011;9492;51.888;5.186;2022-07-22T05:09:17;2.30;;;2.10;;
18726;SDS011;9492;51.888;5.186;2022-07-22T05:11:43;5.20;;;2.53;;
18726;SDS011;9492;51.888;5.186;2022-07-22T05:14:09;3.00;;;2.23;;
18726;SDS011;9492;51.888;5.186;2022-07-22T05:16:36;4.17;;;2.47;;
18726;SDS011;9492;51.888;5.186;2022-07-22T05:19:04;4.87;;;2.10;;
18726;SDS011;9492;51.888;5.186;2022-07-22T05:21:31;7.83;;;2.50;;
18726;SDS011;9492;51.888;5.186;2022-07-22T05:23:57;4.73;;;2.80;;
18726;SDS011;9492;51.888;5.186;2022-07-22T05:26:23;3.40;;;2.47;;
18726;SDS011;9492;51.888;5.186;2022-07-22T05:28:49;5.83;;;2.20;;
18726;SDS011;9492;51.888;5.186;2022-07-22T05:31:15;4.00;;;2.43;;
18726;SDS011;9492;51.888;5.186;2022-07-22T05:33:41;7.00;;;2.90;;
18726;SDS011;9492;51.888;5.186;2022-07-22T05:36:07;5.80;;;2.87;;
18726;SDS011;9492;51.888;5.186;2022-07-22T05:38:34;4.37;;;2.43;;
18726;SDS011;9492;51.888;5.186;2022-07-22T05:41:01;3.90;;;2.37;;
18726;SDS011;9492;51.888;5.186;2022-07-22T05:43:27;5.33;;;2.50;;
18726;SDS011;9492;51.888;5.186;2022-07-22T05:45:53;5.87;;;2.70;;
18726;SDS011;9492;51.888;5.186;2022-07-22T05:48:19;4.77;;;3.00;;
18726;SDS011;9492;51.888;5.186;2022-07-22T05:50:45;5.93;;;3.00;;
18726;SDS011;9492;51.888;5.186;2022-07-22T05:53:11;3.27;;;2.40;;
18726;SDS011;9492;51.888;5.186;2022-07-22T05:55:37;3.33;;;2.70;;
18726;SDS011;9492;51.888;5.186;2022-07-22T05:58:03;4.87;;;2.70;;
18726;SDS011;9492;51.888;5.186;2022-07-22T06:00:29;3.83;;;2.10;;
18726;SDS011;9492;51.888;5.186;2022-07-22T06:02:55;2.33;;;2.03;;
18726;SDS011;9492;51.888;5.186;2022-07-22T06:05:21;4.53;;;2.00;;
18726;SDS011;9492;51.888;5.186;2022-07-22T06:07:47;4.97;;;1.90;;
18726;SDS011;9492;51.888;5.186;2022-07-22T06:10:13;3.03;;;1.73;;
18726;SDS011;9492;51.888;5.186;2022-07-22T06:12:39;4.67;;;2.20;;
18726;SDS011;9492;51.888;5.186;2022-07-22T06:15:06;3.90;;;2.50;;
18726;SDS011;9492;51.888;5.186;2022-07-22T06:17:32;4.83;;;2.27;;
18726;SDS011;9492;51.888;5.186;2022-07-22T06:19:58;4.17;;;2.90;;
18726;SDS011;9492;51.888;5.186;2022-07-22T06:22:23;7.57;;;4.30;;
18726;SDS011;9492;51.888;5.186;2022-07-22T06:24:49;9.50;;;4.73;;
18726;SDS011;9492;51.888;5.186;2022-07-22T06:27:15;3.53;;;2.60;;
18726;SDS011;9492;51.888;5.186;2022-07-22T06:29:41;3.73;;;2.20;;
18726;SDS011;9492;51.888;5.186;2022-07-22T06:32:07;4.83;;;2.50;;
18726;SDS011;9492;51.888;5.186;2022-07-22T06:34:33;3.13;;;1.73;;
18726;SDS011;9492;51.888;5.186;2022-07-22T06:36:59;5.67;;;2.37;;
18726;SDS011;9492;51.888;5.186;2022-07-22T06:39:25;4.63;;;2.30;;
18726;SDS011;9492;51.888;5.186;2022-07-22T06:41:51;4.13;;;1.97;;
18726;SDS011;9492;51.888;5.186;2022-07-22T06:44:17;3.93;;;2.33;;
18726;SDS011;9492;51.888;5.186;2022-07-22T06:46:43;3.97;;;1.93;;
18726;SDS011;9492;51.888;5.186;2022-07-22T06:49:09;2.57;;;1.60;;
18726;SDS011;9492;51.888;5.186;2022-07-22T06:51:35;3.17;;;1.90;;
18726;SDS011;9492;51.888;5.186;2022-07-22T06:54:02;4.10;;;2.23;;
18726;SDS011;9492;51.888;5.186;2022-07-22T06:56:28;2.80;;;2.00;;
18726;SDS011;9492;51.888;5.186;2022-07-22T06:58:54;3.83;;;2.13;;
18726;SDS011;9492;51.888;5.186;2022-07-22T07:01:20;4.87;;;2.17;;
18726;SDS011;9492;51.888;5.186;2022-07-22T07:03:46;2.63;;;1.70;;
18726;SDS011;9492;51.888;5.186;2022-07-22T07:06:12;2.13;;;1.97;;
18726;SDS011;9492;51.888;5.186;2022-07-22T07:08:38;3.53;;;2.00;;
18726;SDS011;9492;51.888;5.186;2022-07-22T07:11:05;4.30;;;2.00;;
18726;SDS011;9492;51.888;5.186;2022-07-22T07:13:31;3.77;;;2.40;;
18726;SDS011;9492;51.888;5.186;2022-07-22T07:15:57;4.70;;;2.03;;
18726;SDS011;9492;51.888;5.186;2022-07-22T07:18:23;1.80;;;1.70;;
18726;SDS011;9492;51.888;5.186;2022-07-22T07:20:49;2.63;;;2.10;;
18726;SDS011;9492;51.888;5.186;2022-07-22T07:23:15;3.03;;;2.10;;
18726;SDS011;9492;51.888;5.186;2022-07-22T07:25:41;1.70;;;1.53;;
18726;SDS011;9492;51.888;5.186;2022-07-22T07:28:07;1.70;;;1.60;;
18726;SDS011;9492;51.888;5.186;2022-07-22T07:30:33;1.70;;;1.50;;
18726;SDS011;9492;51.888;5.186;2022-07-22T07:32:59;1.70;;;1.40;;
18726;SDS011;9492;51.888;5.186;2022-07-22T07:35:26;3.00;;;1.60;;
18726;SDS011;9492;51.888;5.186;2022-07-22T07:37:53;2.00;;;1.80;;
18726;SDS011;9492;51.888;5.186;2022-07-22T07:40:19;2.27;;;1.50;;
18726;SDS011;9492;51.888;5.186;2022-07-22T07:42:45;2.20;;;2.00;;
18726;SDS011;9492;51.888;5.186;2022-07-22T07:45:11;2.33;;;1.97;;
18726;SDS011;9492;51.888;5.186;2022-07-22T07:47:37;1.77;;;1.67;;
18726;SDS011;9492;51.888;5.186;2022-07-22T07:50:04;2.93;;;2.30;;
18726;SDS011;9492;51.888;5.186;2022-07-22T07:52:30;2.73;;;2.10;;
18726;SDS011;9492;51.888;5.186;2022-07-22T07:54:56;4.20;;;2.17;;
18726;SDS011;9492;51.888;5.186;2022-07-22T07:57:22;3.90;;;2.10;;
18726;SDS011;9492;51.888;5.186;2022-07-22T07:59:48;2.83;;;2.07;;
18726;SDS011;9492;51.888;5.186;2022-07-22T08:02:14;2.87;;;1.90;;
18726;SDS011;9492;51.888;5.186;2022-07-22T08:04:40;3.47;;;2.13;;
18726;SDS011;9492;51.888;5.186;2022-07-22T08:07:06;3.03;;;2.10;;
18726;SDS011;9492;51.888;5.186;2022-07-22T08:09:32;2.10;;;1.90;;
18726;SDS011;9492;51.888;5.186;2022-07-22T08:12:00;4.93;;;2.20;;
18726;SDS011;9492;51.888;5.186;2022-07-22T08:14:26;2.40;;;2.00;;
18726;SDS011;9492;51.888;5.186;2022-07-22T08:16:52;2.93;;;2.00;;
18726;SDS011;9492;51.888;5.186;2022-07-22T08:19:18;2.27;;;1.93;;
18726;SDS011;9492;51.888;5.186;2022-07-22T08:21:44;2.23;;;2.10;;
18726;SDS011;9492;51.888;5.186;2022-07-22T08:24:10;3.03;;;2.30;;
18726;SDS011;9492;51.888;5.186;2022-07-22T08:26:36;2.83;;;2.00;;
18726;SDS011;9492;51.888;5.186;2022-07-22T08:29:03;4.13;;;1.97;;
18726;SDS011;9492;51.888;5.186;2022-07-22T08:31:30;2.60;;;2.20;;
18726;SDS011;9492;51.888;5.186;2022-07-22T08:34:00;2.70;;;2.27;;
18726;SDS011;9492;51.888;5.186;2022-07-22T08:36:27;2.33;;;2.10;;
18726;SDS011;9492;51.888;5.186;2022-07-22T08:38:53;3.87;;;2.40;;
18726;SDS011;9492;51.888;5.186;2022-07-22T08:41:19;1.97;;;1.77;;
18726;SDS011;9492;51.888;5.186;2022-07-22T08:43:46;2.63;;;1.97;;
18726;SDS011;9492;51.888;5.186;2022-07-22T08:46:12;1.80;;;1.70;;
18726;SDS011;9492;51.888;5.186;2022-07-22T08:48:39;2.53;;;1.90;;
18726;SDS011;9492;51.888;5.186;2022-07-22T08:51:05;1.80;;;1.70;;
18726;SDS011;9492;51.888;5.186;2022-07-22T08:53:32;3.50;;;1.90;;
18726;SDS011;9492;51.888;5.186;2022-07-22T08:55:58;1.97;;;1.87;;
18726;SDS011;9492;51.888;5.186;2022-07-22T08:58:24;1.50;;;1.40;;
18726;SDS011;9492;51.888;5.186;2022-07-22T09:01:04;1.90;;;1.60;;
18726;SDS011;9492;51.888;5.186;2022-07-22T09:03:30;3.03;;;1.97;;
18726;SDS011;9492;51.888;5.186;2022-07-22T09:05:56;3.17;;;1.70;;
18726;SDS011;9492;51.888;5.186;2022-07-22T09:08:22;2.30;;;1.50;;
18726;SDS011;9492;51.888;5.186;2022-07-22T09:10:48;2.30;;;1.37;;
18726;SDS011;9492;51.888;5.186;2022-07-22T09:13:14;2.27;;;1.60;;
18726;SDS011;9492;51.888;5.186;2022-07-22T09:15:51;2.80;;;1.37;;
18726;SDS011;9492;51.888;5.186;2022-07-22T09:18:18;2.90;;;1.50;;
18726;SDS011;9492;51.888;5.186;2022-07-22T09:20:44;2.50;;;1.53;;
18726;SDS011;9492;51.888;5.186;2022-07-22T09:23:12;4.13;;;1.63;;
18726;SDS011;9492;51.888;5.186;2022-07-22T09:25:39;3.20;;;1.73;;
18726;SDS011;9492;51.888;5.186;2022-07-22T09:30:32;3.60;;;1.60;;
18726;SDS011;9492;51.888;5.186;2022-07-22T09:32:58;2.27;;;1.30;;
18726;SDS011;9492;51.888;5.186;2022-07-22T09:35:24;1.43;;;1.33;;
18726;SDS011;9492;51.888;5.186;2022-07-22T09:37:57;1.50;;;1.40;;
18726;SDS011;9492;51.888;5.186;2022-07-22T09:40:24;2.13;;;1.60;;
18726;SDS011;9492;51.888;5.186;2022-07-22T09:42:53;2.70;;;1.80;;
18726;SDS011;9492;51.888;5.186;2022-07-22T09:45:19;3.03;;;1.77;;
18726;SDS011;9492;51.888;5.186;2022-07-22T09:47:46;2.40;;;1.90;;
18726;SDS011;9492;51.888;5.186;2022-07-22T09:50:23;1.63;;;1.30;;
18726;SDS011;9492;51.888;5.186;2022-07-22T09:52:51;1.50;;;1.40;;
18726;SDS011;9492;51.888;5.186;2022-07-22T09:55:18;2.03;;;1.60;;
18726;SDS011;9492;51.888;5.186;2022-07-22T09:57:44;3.57;;;2.13;;
18726;SDS011;9492;51.888;5.186;2022-07-22T10:00:11;2.67;;;1.60;;
18726;SDS011;9492;51.888;5.186;2022-07-22T10:03:00;1.97;;;1.70;;
18726;SDS011;9492;51.888;5.186;2022-07-22T10:05:35;2.17;;;1.50;;
18726;SDS011;9492;51.888;5.186;2022-07-22T10:08:01;3.63;;;1.50;;
18726;SDS011;9492;51.888;5.186;2022-07-22T10:10:28;2.50;;;1.83;;
18726;SDS011;9492;51.888;5.186;2022-07-22T10:12:55;1.50;;;1.40;;
18726;SDS011;9492;51.888;5.186;2022-07-22T10:15:22;2.17;;;1.70;;
18726;SDS011;9492;51.888;5.186;2022-07-22T10:17:49;2.30;;;1.70;;
18726;SDS011;9492;51.888;5.186;2022-07-22T10:20:23;1.50;;;1.40;;
18726;SDS011;9492;51.888;5.186;2022-07-22T10:25:16;3.43;;;1.60;;
18726;SDS011;9492;51.888;5.186;2022-07-22T10:27:51;1.40;;;1.30;;
18726;SDS011;9492;51.888;5.186;2022-07-22T10:30:19;2.73;;;1.30;;
18726;SDS011;9492;51.888;5.186;2022-07-22T10:32:46;1.97;;;1.40;;
18726;SDS011;9492;51.888;5.186;2022-07-22T10:35:27;2.37;;;1.70;;
18726;SDS011;9492;51.888;5.186;2022-07-22T10:37:54;2.13;;;1.37;;
18726;SDS011;9492;51.888;5.186;2022-07-22T10:40:20;2.47;;;1.50;;
18726;SDS011;9492;51.888;5.186;2022-07-22T10:45:30;1.60;;;1.50;;
18726;SDS011;9492;51.888;5.186;2022-07-22T10:47:58;1.67;;;1.53;;
18726;SDS011;9492;51.888;5.186;2022-07-22T10:53:06;1.40;;;1.30;;
18726;SDS011;9492;51.888;5.186;2022-07-22T10:55:32;1.70;;;1.60;;
18726;SDS011;9492;51.888;5.186;2022-07-22T10:57:59;1.30;;;1.20;;
18726;SDS011;9492;51.888;5.186;2022-07-22T11:00:25;1.47;;;1.37;;
18726;SDS011;9492;51.888;5.186;2022-07-22T11:02:51;1.60;;;1.50;;
18726;SDS011;9492;51.888;5.186;2022-07-22T11:05:24;1.83;;;1.43;;
18726;SDS011;9492;51.888;5.186;2022-07-22T11:07:50;2.20;;;1.50;;
18726;SDS011;9492;51.888;5.186;2022-07-22T11:10:17;3.47;;;1.60;;
18726;SDS011;9492;51.888;5.186;2022-07-22T11:12:44;1.57;;;1.47;;
18726;SDS011;9492;51.888;5.186;2022-07-22T11:15:10;1.77;;;1.43;;
18726;SDS011;9492;51.888;5.186;2022-07-22T11:17:37;2.07;;;1.87;;
18726;SDS011;9492;51.888;5.186;2022-07-22T11:20:10;2.40;;;1.53;;
18726;SDS011;9492;51.888;5.186;2022-07-22T11:22:38;3.00;;;1.60;;
18726;SDS011;9492;51.888;5.186;2022-07-22T11:25:05;4.20;;;1.80;;
18726;SDS011;9492;51.888;5.186;2022-07-22T11:27:31;2.10;;;1.60;;
18726;SDS011;9492;51.888;5.186;2022-07-22T11:29:57;3.03;;;1.53;;
18726;SDS011;9492;51.888;5.186;2022-07-22T11:32:24;2.07;;;1.50;;
18726;SDS011;9492;51.888;5.186;2022-07-22T11:34:51;2.80;;;1.43;;
18726;SDS011;9492;51.888;5.186;2022-07-22T11:37:18;2.80;;;1.47;;
18726;SDS011;9492;51.888;5.186;2022-07-22T11:39:44;2.53;;;2.00;;
18726;SDS011;9492;51.888;5.186;2022-07-22T11:42:11;2.60;;;1.77;;
18726;SDS011;9492;51.888;5.186;2022-07-22T11:44:37;2.23;;;1.80;;
18726;SDS011;9492;51.888;5.186;2022-07-22T11:47:04;3.30;;;1.80;;
18726;SDS011;9492;51.888;5.186;2022-07-22T11:49:32;2.83;;;1.50;;
18726;SDS011;9492;51.888;5.186;2022-07-22T11:51:59;1.87;;;1.73;;
18726;SDS011;9492;51.888;5.186;2022-07-22T11:54:25;3.23;;;1.70;;
18726;SDS011;9492;51.888;5.186;2022-07-22T11:56:51;3.33;;;2.20;;
18726;SDS011;9492;51.888;5.186;2022-07-22T11:59:17;3.03;;;1.87;;
18726;SDS011;9492;51.888;5.186;2022-07-22T12:01:44;1.60;;;1.50;;
18726;SDS011;9492;51.888;5.186;2022-07-22T12:04:12;2.97;;;1.97;;
18726;SDS011;9492;51.888;5.186;2022-07-22T12:06:39;3.13;;;1.87;;
18726;SDS011;9492;51.888;5.186;2022-07-22T12:09:09;2.47;;;2.20;;
18726;SDS011;9492;51.888;5.186;2022-07-22T12:11:36;2.20;;;1.77;;
18726;SDS011;9492;51.888;5.186;2022-07-22T12:14:07;2.90;;;2.07;;
18726;SDS011;9492;51.888;5.186;2022-07-22T12:16:33;3.37;;;1.67;;
18726;SDS011;9492;51.888;5.186;2022-07-22T12:19:02;1.57;;;1.30;;
18726;SDS011;9492;51.888;5.186;2022-07-22T12:21:29;3.83;;;2.03;;
18726;SDS011;9492;51.888;5.186;2022-07-22T12:23:59;3.90;;;1.77;;
18726;SDS011;9492;51.888;5.186;2022-07-22T12:26:39;2.03;;;1.57;;
18726;SDS011;9492;51.888;5.186;2022-07-22T12:29:25;1.50;;;1.40;;
18726;SDS011;9492;51.888;5.186;2022-07-22T12:31:52;3.10;;;2.27;;
18726;SDS011;9492;51.888;5.186;2022-07-22T12:37:01;2.53;;;1.87;;
18726;SDS011;9492;51.888;5.186;2022-07-22T12:39:36;2.73;;;1.70;;
18726;SDS011;9492;51.888;5.186;2022-07-22T12:42:02;2.60;;;1.70;;
18726;SDS011;9492;51.888;5.186;2022-07-22T12:44:28;2.10;;;1.87;;
18726;SDS011;9492;51.888;5.186;2022-07-22T12:46:55;18.40;;;2.30;;
18726;SDS011;9492;51.888;5.186;2022-07-22T12:49:24;3.30;;;2.27;;
18726;SDS011;9492;51.888;5.186;2022-07-22T12:54:33;5.90;;;2.77;;
18726;SDS011;9492;51.888;5.186;2022-07-22T12:56:59;3.83;;;2.20;;
18726;SDS011;9492;51.888;5.186;2022-07-22T12:59:25;3.43;;;2.30;;
18726;SDS011;9492;51.888;5.186;2022-07-22T13:01:51;2.70;;;2.40;;
18726;SDS011;9492;51.888;5.186;2022-07-22T13:04:17;5.10;;;2.97;;
18726;SDS011;9492;51.888;5.186;2022-07-22T13:06:43;3.63;;;2.53;;
18726;SDS011;9492;51.888;5.186;2022-07-22T13:09:09;4.23;;;2.50;;
18726;SDS011;9492;51.888;5.186;2022-07-22T13:11:35;4.30;;;2.63;;
18726;SDS011;9492;51.888;5.186;2022-07-22T13:14:05;3.93;;;3.27;;
18726;SDS011;9492;51.888;5.186;2022-07-22T13:16:31;2.33;;;2.10;;
18726;SDS011;9492;51.888;5.186;2022-07-22T13:18:58;3.20;;;2.70;;
18726;SDS011;9492;51.888;5.186;2022-07-22T13:21:24;2.67;;;2.43;;
18726;SDS011;9492;51.888;5.186;2022-07-22T13:23:50;4.30;;;2.17;;
18726;SDS011;9492;51.888;5.186;2022-07-22T13:26:15;4.37;;;3.43;;
18726;SDS011;9492;51.888;5.186;2022-07-22T13:28:41;6.00;;;3.20;;
18726;SDS011;9492;51.888;5.186;2022-07-22T13:31:08;4.07;;;2.90;;
18726;SDS011;9492;51.888;5.186;2022-07-22T13:33:34;3.53;;;2.93;;
18726;SDS011;9492;51.888;5.186;2022-07-22T13:36:00;5.77;;;2.90;;
18726;SDS011;9492;51.888;5.186;2022-07-22T13:38:26;3.87;;;3.20;;
18726;SDS011;9492;51.888;5.186;2022-07-22T13:40:52;5.00;;;3.10;;
18726;SDS011;9492;51.888;5.186;2022-07-22T13:43:19;4.97;;;3.10;;
18726;SDS011;9492;51.888;5.186;2022-07-22T13:45:45;3.80;;;2.90;;
18726;SDS011;9492;51.888;5.186;2022-07-22T13:48:11;5.93;;;3.40;;
18726;SDS011;9492;51.888;5.186;2022-07-22T13:50:38;4.03;;;3.67;;
18726;SDS011;9492;51.888;5.186;2022-07-22T13:53:03;6.03;;;3.97;;
18726;SDS011;9492;51.888;5.186;2022-07-22T13:55:29;5.17;;;3.30;;
18726;SDS011;9492;51.888;5.186;2022-07-22T13:57:56;3.07;;;2.77;;
18726;SDS011;9492;51.888;5.186;2022-07-22T14:00:22;6.07;;;3.90;;
18726;SDS011;9492;51.888;5.186;2022-07-22T14:02:49;5.10;;;2.97;;
18726;SDS011;9492;51.888;5.186;2022-07-22T14:05:15;3.13;;;2.83;;
18726;SDS011;9492;51.888;5.186;2022-07-22T14:07:42;3.60;;;3.30;;
18726;SDS011;9492;51.888;5.186;2022-07-22T14:10:08;4.33;;;3.40;;
18726;SDS011;9492;51.888;5.186;2022-07-22T14:12:34;5.67;;;4.43;;
18726;SDS011;9492;51.888;5.186;2022-07-22T14:15:00;6.00;;;4.07;;
18726;SDS011;9492;51.888;5.186;2022-07-22T14:17:26;4.17;;;3.23;;
18726;SDS011;9492;51.888;5.186;2022-07-22T14:19:52;4.50;;;4.00;;
18726;SDS011;9492;51.888;5.186;2022-07-22T14:22:19;3.50;;;3.30;;
18726;SDS011;9492;51.888;5.186;2022-07-22T14:24:45;3.80;;;3.50;;
18726;SDS011;9492;51.888;5.186;2022-07-22T14:27:11;5.40;;;3.00;;
18726;SDS011;9492;51.888;5.186;2022-07-22T14:29:38;7.10;;;3.50;;
18726;SDS011;9492;51.888;5.186;2022-07-22T14:32:04;3.23;;;3.00;;
18726;SDS011;9492;51.888;5.186;2022-07-22T14:34:30;3.50;;;3.00;;
18726;SDS011;9492;51.888;5.186;2022-07-22T14:36:56;5.03;;;3.43;;
18726;SDS011;9492;51.888;5.186;2022-07-22T14:39:22;4.00;;;2.80;;
18726;SDS011;9492;51.888;5.186;2022-07-22T14:41:48;3.40;;;3.10;;
18726;SDS011;9492;51.888;5.186;2022-07-22T14:44:14;4.43;;;4.00;;
18726;SDS011;9492;51.888;5.186;2022-07-22T14:46:40;5.57;;;4.17;;
18726;SDS011;9492;51.888;5.186;2022-07-22T14:49:06;6.03;;;3.87;;
18726;SDS011;9492;51.888;5.186;2022-07-22T14:51:32;6.23;;;3.50;;
18726;SDS011;9492;51.888;5.186;2022-07-22T14:53:58;3.50;;;3.10;;
18726;SDS011;9492;51.888;5.186;2022-07-22T14:56:24;5.07;;;3.67;;
18726;SDS011;9492;51.888;5.186;2022-07-22T14:58:50;3.60;;;3.30;;
18726;SDS011;9492;51.888;5.186;2022-07-22T15:01:16;3.77;;;3.43;;
18726;SDS011;9492;51.888;5.186;2022-07-22T15:03:42;3.40;;;3.10;;
18726;SDS011;9492;51.888;5.186;2022-07-22T15:06:09;5.57;;;3.50;;
18726;SDS011;9492;51.888;5.186;2022-07-22T15:08:35;4.40;;;3.73;;
18726;SDS011;9492;51.888;5.186;2022-07-22T15:11:01;3.47;;;3.10;;